Time;durP1;ratioP1;P1;durP2;ratioP2;P2;SDS_P1;SDS_P2;PMS_P1;PMS_P2;Temp;Humidity;BMP_temperature;BMP_pressure;BME280_temperature;BME280_humidity;BME280_pressure;Samples;Min_cycle;Max_cycle;Signal;HPM_P1;HPM_P2
2022/05/22 13:54:15;;;;;;;8.70;3.72;;;;;;;30.37;23.95;97949.47;5108918;28;20131;-75
2022/05/22 13:56:44;;;;;;;6.55;2.38;;;;;;;30.35;24.33;97945.44;5093807;28;20032;-75
2022/05/22 13:59:43;;;;;;;8.80;3.00;;;;;;;30.30;24.97;97949.75;5091020;28;20039;-76
2022/05/22 14:02:12;;;;;;;10.38;3.15;;;;;;;30.26;23.85;97937.06;5046583;28;20045;-74
2022/05/22 14:04:38;;;;;;;9.40;4.20;;;;;;;30.24;24.21;97947.31;5029842;28;20136;-76
2022/05/22 14:07:05;;;;;;;5.60;4.05;;;;;;;30.17;24.79;97939.47;5030040;28;20045;-78
2022/05/22 14:09:33;;;;;;;4.00;2.10;;;;;;;30.14;24.04;97942.66;5013009;28;20432;-76
2022/05/22 14:11:58;;;;;;;9.50;3.67;;;;;;;30.07;24.91;97939.44;5029345;28;20041;-76
2022/05/22 14:14:30;;;;;;;8.23;3.35;;;;;;;29.98;23.86;97939.13;5029543;28;20138;-76
2022/05/22 14:17:04;;;;;;;3.85;1.88;;;;;;;29.86;23.17;97931.28;5028395;28;20215;-80
2022/05/22 14:19:31;;;;;;;5.28;2.00;;;;;;;29.83;23.42;97931.00;5028081;28;20039;-81
2022/05/22 14:22:15;;;;;;;7.43;2.00;;;;;;;29.77;24.03;97922.88;4994595;28;20091;-76
2022/05/22 14:24:52;;;;;;;8.50;5.80;;;;;;;29.68;23.64;97927.16;5026460;28;20033;-75
2022/05/22 14:27:34;;;;;;;4.77;2.30;;;;;;;29.73;24.56;97934.41;4976734;28;20022;-78
2022/05/22 14:30:16;;;;;;;5.10;1.90;;;;;;;29.69;24.16;97938.69;5005305;28;20316;-77
2022/05/22 14:32:50;;;;;;;6.05;1.80;;;;;;;29.61;23.22;97928.44;5004651;28;20044;-80
2022/05/22 14:35:35;;;;;;;10.88;7.45;;;;;;;29.51;22.75;97935.38;5025176;28;20038;-79
2022/05/22 14:38:23;;;;;;;7.40;2.22;;;;;;;29.54;23.16;97931.34;5021443;28;20041;-74
2022/05/22 14:40:53;;;;;;;6.85;2.10;;;;;;;29.47;23.92;97923.50;5084635;28;20028;-77
2022/05/22 14:43:25;;;;;;;4.68;1.70;;;;;;;29.40;23.25;97931.00;5085506;28;20111;-77
2022/05/22 14:45:54;;;;;;;9.02;2.00;;;;;;;29.40;22.83;97931.00;5084762;28;20016;-76
2022/05/22 14:48:23;;;;;;;3.85;1.58;;;;;;;29.24;22.33;97924.72;5080342;28;20052;-79
2022/05/22 14:50:52;;;;;;;4.03;1.35;;;;;;;29.29;22.83;97937.38;5050584;28;20499;-77
2022/05/22 14:53:30;;;;;;;8.18;1.40;;;;;;;29.25;22.43;97936.28;5081407;28;20036;-79
2022/05/22 14:56:04;;;;;;;8.45;1.90;;;;;;;29.19;23.24;97941.63;5079277;28;20066;-81
2022/05/22 14:58:33;;;;;;;41.13;18.38;;;;;;;29.23;23.91;97931.97;5066225;28;20032;-78
2022/05/22 15:01:09;;;;;;;9.38;4.38;;;;;;;29.33;23.59;97925.03;5059171;28;20041;-78
2022/05/22 15:03:48;;;;;;;13.40;2.90;;;;;;;29.46;23.70;97923.78;5058233;28;20795;-80
2022/05/22 15:06:27;;;;;;;15.43;2.53;;;;;;;29.52;22.83;97914.66;5026913;28;20124;-78
2022/05/22 15:08:57;;;;;;;14.45;2.40;;;;;;;29.47;23.42;97936.16;5043169;28;20429;-78
2022/05/22 15:11:37;;;;;;;21.52;2.60;;;;;;;29.43;23.37;97938.56;5064102;28;20111;-79
2022/05/22 15:14:06;;;;;;;11.15;2.30;;;;;;;29.31;23.60;97933.38;5029541;28;20539;-79
2022/05/22 15:16:36;;;;;;;12.35;2.60;;;;;;;29.21;23.94;97936.78;5039346;28;20029;-90
2022/05/22 15:25:29;;;;;;;25.20;10.15;;;;;;;28.91;23.66;97934.66;5065710;28;20116;-76
2022/05/22 15:27:54;;;;;;;;;;;;;;;28.82;23.97;97941.56;5064868;28;20029;-77
2022/05/22 15:30:20;;;;;;;8.02;3.17;;;;;;;28.75;23.37;97936.41;5067508;28;20417;-74
2022/05/22 15:32:45;;;;;;;21.45;6.90;;;;;;;28.64;23.95;97937.38;5049268;28;20104;-73
2022/05/22 15:35:11;;;;;;;8.35;4.18;;;;;;;28.58;23.38;97947.25;5049201;28;20041;-75
2022/05/22 15:37:45;;;;;;;17.60;13.43;;;;;;;28.54;23.42;97953.34;5032962;28;20053;-74
2022/05/22 15:40:14;;;;;;;9.45;3.60;;;;;;;28.50;23.74;97945.00;5066658;28;20530;-74
2022/05/22 15:43:08;;;;;;;15.00;9.13;;;;;;;28.43;23.41;97947.03;5047313;28;20021;-77
2022/05/22 15:45:33;;;;;;;12.43;5.63;;;;;;;28.37;22.86;97954.25;5063490;28;20075;-76
2022/05/22 15:51:12;;;;;;;10.80;3.90;;;;;;;28.34;23.60;97946.69;5051250;28;20047;-75
2022/05/22 15:53:38;;;;;;;12.70;4.50;;;;;;;28.33;23.66;97947.75;5047263;28;20033;-76
2022/05/22 15:56:08;;;;;;;4.63;2.70;;;;;;;28.30;23.70;97951.75;5037563;28;20056;-77
2022/05/22 15:58:34;;;;;;;7.80;3.20;;;;;;;28.36;23.68;97951.81;5046958;28;20029;-76
2022/05/22 16:01:10;;;;;;;8.48;4.38;;;;;;;28.26;23.95;97957.84;5046085;28;20029;-78
2022/05/22 16:03:42;;;;;;;8.02;3.75;;;;;;;28.27;24.85;97954.94;5030071;28;20119;-77
2022/05/22 16:06:07;;;;;;;14.30;6.72;;;;;;;28.22;23.82;97954.88;5029925;28;20107;-80
2022/05/22 16:08:33;;;;;;;6.65;3.88;;;;;;;28.16;24.32;97953.19;5046296;28;20167;-82
2022/05/22 16:10:58;;;;;;;8.15;2.10;;;;;;;28.06;24.45;97956.56;5046445;28;20087;-78
2022/05/22 16:13:24;;;;;;;7.90;3.45;;;;;;;28.01;25.11;97956.50;5063133;28;20029;-78
2022/05/22 16:15:49;;;;;;;5.43;2.90;;;;;;;27.99;25.08;97955.97;5035273;28;20547;-69
2022/05/22 16:18:15;;;;;;;6.05;2.42;;;;;;;27.98;25.04;97959.69;5052142;28;20048;-71
2022/05/22 16:20:42;;;;;;;6.47;2.30;;;;;;;27.97;25.19;97958.06;5036541;28;20032;-75
2022/05/22 16:23:07;;;;;;;12.00;2.10;;;;;;;27.92;25.26;97966.81;5053395;28;20029;-72
2022/05/22 16:25:33;;;;;;;6.60;2.15;;;;;;;27.88;25.30;97971.06;5054002;28;20028;-70
2022/05/22 16:27:58;;;;;;;4.43;1.67;;;;;;;27.86;25.46;97978.53;5052072;28;20040;-68
2022/05/22 16:30:24;;;;;;;9.63;2.15;;;;;;;27.77;26.06;97974.69;5052192;28;20036;-71
2022/05/22 16:32:49;;;;;;;8.18;1.70;;;;;;;27.70;25.83;97977.53;5051734;28;20033;-69
2022/05/22 16:35:26;;;;;;;8.55;2.85;;;;;;;27.63;26.11;97974.22;5018269;28;20029;-70
2022/05/22 16:37:52;;;;;;;8.35;2.28;;;;;;;27.57;26.52;97978.69;5027755;28;20052;-70
2022/05/22 16:40:18;;;;;;;4.15;1.92;;;;;;;27.51;26.52;97984.22;5035418;28;20404;-69
2022/05/22 16:42:44;;;;;;;9.35;2.10;;;;;;;27.43;26.78;97985.44;5052141;28;20549;-70
2022/05/22 16:45:10;;;;;;;11.10;2.25;;;;;;;27.37;26.67;97989.94;5034620;28;20028;-71
2022/05/22 16:53:06;;;;;;;6.18;2.28;;;;;;;27.08;27.12;97986.47;5047754;28;20051;-71
2022/05/22 16:55:37;;;;;;;5.93;1.70;;;;;;;27.02;27.58;97990.91;5051871;28;20044;-69
2022/05/22 16:58:10;;;;;;;3.60;1.60;;;;;;;26.91;27.55;97986.44;5018572;28;20476;-74
2022/05/22 17:00:36;;;;;;;3.45;2.10;;;;;;;26.84;28.41;97988.47;5017249;28;20574;-72
2022/05/22 17:03:02;;;;;;;4.45;1.80;;;;;;;26.77;27.84;97990.47;5049552;28;20495;-73
2022/05/22 17:05:28;;;;;;;3.10;1.48;;;;;;;26.68;28.21;97990.88;5046980;28;20126;-72
2022/05/22 17:07:55;;;;;;;5.43;1.80;;;;;;;26.63;28.12;97993.44;5028887;28;20531;-74
2022/05/22 17:10:21;;;;;;;6.80;1.60;;;;;;;26.53;27.66;98004.75;5013299;28;20025;-69
2022/05/22 17:12:47;;;;;;;9.02;1.80;;;;;;;26.43;28.56;98004.53;5012572;28;20670;-72
2022/05/22 17:15:12;;;;;;;5.45;1.50;;;;;;;26.35;27.75;98000.38;5001749;28;20179;-79
2022/05/22 17:17:38;;;;;;;5.80;1.52;;;;;;;26.26;28.65;98006.34;5026679;28;20024;-79
2022/05/22 17:20:04;;;;;;;4.68;1.50;;;;;;;26.23;28.14;98009.50;5013122;28;20052;-80
2022/05/22 17:22:32;;;;;;;9.30;1.98;;;;;;;26.16;28.19;98007.75;5020604;28;20617;-68
2022/05/22 17:24:58;;;;;;;;;;;;;;;26.06;28.83;98007.56;5031721;28;20041;-69
2022/05/22 17:27:26;;;;;;;3.95;1.70;;;;;;;25.99;28.32;98014.88;5046582;28;19931;-71
2022/05/22 17:29:52;;;;;;;12.57;2.15;;;;;;;25.90;28.57;98010.91;5058757;28;20037;-68
2022/05/22 17:32:18;;;;;;;6.57;1.50;;;;;;;25.85;28.50;98000.91;5039347;28;20044;-73
2022/05/22 17:34:44;;;;;;;4.88;1.25;;;;;;;25.85;28.16;98003.59;5028285;28;20075;-69
2022/05/22 17:37:17;;;;;;;4.93;1.90;;;;;;;25.81;28.44;98011.25;5008687;28;20053;-69
2022/05/22 17:39:42;;;;;;;3.63;1.30;;;;;;;25.70;28.54;97998.72;5026092;28;20037;-71
2022/05/22 17:42:15;;;;;;;3.38;1.30;;;;;;;25.66;28.28;98010.09;5034523;28;20507;-78
2022/05/22 17:44:41;;;;;;;8.02;1.40;;;;;;;25.60;28.07;98009.16;5032194;28;20032;-77
2022/05/22 17:47:06;;;;;;;4.95;1.20;;;;;;;25.57;28.54;98017.66;5034339;28;20036;-78
2022/05/22 17:49:32;;;;;;;2.92;1.42;;;;;;;25.48;28.48;98021.72;5051144;28;20587;-78
2022/05/22 17:51:58;;;;;;;4.80;1.58;;;;;;;25.43;28.82;98007.19;5047344;28;20037;-78
2022/05/22 17:54:23;;;;;;;3.25;1.20;;;;;;;25.39;28.88;98007.88;5030103;28;20032;-79
2022/05/22 17:56:49;;;;;;;4.28;1.33;;;;;;;25.40;31.89;98012.19;5031053;28;20040;-90
2022/05/22 17:59:15;;;;;;;6.05;1.50;;;;;;;25.43;32.13;98012.53;5049411;28;20029;-90
2022/05/22 18:01:40;;;;;;;7.82;1.42;;;;;;;25.47;31.70;98012.88;5015293;28;20045;-83
2022/05/22 18:04:06;;;;;;;8.40;1.60;;;;;;;25.50;31.65;98009.75;5045644;28;21498;-84
2022/05/22 18:06:32;;;;;;;4.15;1.20;;;;;;;25.52;31.22;98013.00;5047410;28;20048;-84
2022/05/22 18:08:58;;;;;;;4.15;1.40;;;;;;;25.52;31.14;98015.66;5027512;28;20489;-83
2022/05/22 18:16:56;;;;;;;4.82;1.48;;;;;;;25.48;30.61;98013.72;5031376;28;20107;-82
2022/05/22 18:19:22;;;;;;;2.33;1.10;;;;;;;25.45;30.49;98028.34;5040259;28;20537;-81
2022/05/22 18:21:48;;;;;;;3.15;1.20;;;;;;;25.38;30.19;98024.94;5048453;28;20028;-80
2022/05/22 18:27:07;;;;;;;2.95;1.15;;;;;;;25.30;30.18;98034.09;5032809;28;20116;-80
2022/05/22 18:29:32;;;;;;;7.63;1.10;;;;;;;25.24;29.86;98030.47;5028927;28;20037;-80
2022/05/22 18:31:58;;;;;;;6.18;1.20;;;;;;;25.19;29.77;98032.19;5048468;28;20389;-81
2022/05/22 18:34:24;;;;;;;13.32;1.30;;;;;;;25.20;29.87;98044.50;5032134;28;20031;-80
2022/05/22 18:36:50;;;;;;;6.32;1.30;;;;;;;25.16;29.59;98049.50;5015896;28;20378;-81
2022/05/22 18:39:17;;;;;;;5.05;1.60;;;;;;;25.08;29.72;98050.66;5030300;28;20114;-82
2022/05/22 18:41:42;;;;;;;3.38;1.40;;;;;;;25.07;29.50;98058.88;5049198;28;20033;-81
2022/05/22 18:44:11;;;;;;;2.97;1.40;;;;;;;25.04;29.66;98072.69;5033444;28;20025;-80
2022/05/22 18:46:36;;;;;;;2.90;1.35;;;;;;;25.04;29.43;98062.00;5031372;28;20028;-79
2022/05/22 18:49:09;;;;;;;3.45;1.55;;;;;;;25.02;29.55;98077.44;5029868;28;20024;-80
2022/05/22 18:51:35;;;;;;;3.92;1.52;;;;;;;24.96;29.46;98071.16;5015328;28;20048;-81
2022/05/22 18:54:01;;;;;;;4.28;1.42;;;;;;;24.96;29.52;98076.47;5029662;28;20040;-81
2022/05/22 18:56:30;;;;;;;3.70;1.55;;;;;;;24.94;29.30;98081.25;5048131;28;20029;-81
2022/05/22 18:58:56;;;;;;;5.55;1.40;;;;;;;24.89;29.42;98078.41;5024259;28;20079;-79
2022/05/22 19:01:21;;;;;;;3.92;1.40;;;;;;;24.86;29.33;98069.03;5028758;28;20029;-78
2022/05/22 19:03:48;;;;;;;4.22;1.48;;;;;;;24.83;29.29;98066.81;5013637;28;20124;-80
2022/05/22 19:06:14;;;;;;;3.42;1.63;;;;;;;24.80;29.48;98059.25;5023159;28;20038;-83
2022/05/22 19:08:39;;;;;;;7.30;1.92;;;;;;;24.81;29.16;98070.72;5038801;28;20029;-81
2022/05/22 19:11:05;;;;;;;4.32;2.20;;;;;;;24.80;29.28;98077.94;5030347;28;20477;-81
2022/05/22 19:13:33;;;;;;;6.40;2.08;;;;;;;24.73;29.25;98071.84;5013598;28;20029;-82
2022/05/22 19:16:02;;;;;;;4.88;2.20;;;;;;;24.69;28.96;98066.16;5014059;28;20045;-81
2022/05/22 19:18:30;;;;;;;5.50;1.83;;;;;;;24.69;29.21;98074.16;5029714;28;20103;-81
2022/05/22 19:20:55;;;;;;;4.90;1.75;;;;;;;24.67;29.08;98076.25;5031083;28;20087;-76
2022/05/22 19:23:26;;;;;;;5.82;1.65;;;;;;;24.66;29.29;98082.59;5039745;28;20037;-80
2022/05/22 19:25:59;;;;;;;5.68;1.65;;;;;;;24.64;29.17;98073.22;5012952;28;20025;-78
2022/05/22 19:28:40;;;;;;;2.95;1.60;;;;;;;24.56;29.35;98072.47;5030851;28;20069;-78
2022/05/22 19:31:08;;;;;;;3.90;2.00;;;;;;;24.55;29.09;98076.13;5014580;28;20477;-80
2022/05/22 19:33:39;;;;;;;4.90;2.28;;;;;;;24.51;29.10;98082.97;5031332;28;20033;-79
2022/05/22 19:36:10;;;;;;;5.00;2.20;;;;;;;24.52;29.07;98075.78;5026667;28;20033;-79
2022/05/22 19:38:41;;;;;;;5.25;2.10;;;;;;;24.50;28.92;98077.88;5030048;28;20108;-79
2022/05/22 19:43:57;;;;;;;4.32;2.40;;;;;;;24.48;29.16;98090.59;5032556;28;20036;-79
2022/05/22 19:46:27;;;;;;;6.20;2.53;;;;;;;24.46;28.90;98090.00;5032767;28;20041;-80
2022/05/22 19:48:52;;;;;;;9.32;2.22;;;;;;;24.42;28.88;98089.63;5049236;28;20025;-79
2022/05/22 19:51:20;;;;;;;10.90;2.53;;;;;;;24.41;29.01;98097.88;5052506;28;20087;-78
2022/05/22 19:53:48;;;;;;;4.20;2.03;;;;;;;24.41;28.94;98104.00;5034679;28;20508;-80
2022/05/22 19:59:03;;;;;;;4.38;1.77;;;;;;;24.38;28.93;98102.63;5053424;28;20116;-78
2022/05/22 20:01:28;;;;;;;4.35;1.98;;;;;;;24.38;28.93;98107.94;5033767;28;20029;-81
2022/05/22 20:03:57;;;;;;;6.05;1.90;;;;;;;24.37;28.91;98105.50;5015485;28;20055;-80
2022/05/22 20:06:30;;;;;;;3.95;1.67;;;;;;;24.34;29.24;98111.28;5017558;28;20029;-78
2022/05/22 20:08:59;;;;;;;6.43;1.73;;;;;;;24.32;29.24;98108.84;5015695;28;20021;-80
2022/05/22 20:11:29;;;;;;;2.90;1.40;;;;;;;24.29;29.12;98106.59;5048536;28;20412;-78
2022/05/22 20:13:55;;;;;;;3.97;1.40;;;;;;;24.24;29.25;98103.75;5032980;28;20397;-78
2022/05/22 20:16:34;;;;;;;2.80;1.40;;;;;;;24.22;29.34;98108.50;5035216;28;20045;-79
2022/05/22 20:19:18;;;;;;;2.10;1.10;;;;;;;24.16;29.34;98104.91;5034759;28;20025;-79
2022/05/22 20:21:44;;;;;;;2.40;1.17;;;;;;;24.14;29.43;98111.47;5053652;28;20041;-79
2022/05/22 20:24:16;;;;;;;4.00;1.25;;;;;;;24.09;29.42;98101.47;5031978;28;20026;-79
2022/05/22 20:26:42;;;;;;;1.83;1.05;;;;;;;24.07;29.08;98110.69;5016508;28;20045;-79
2022/05/22 20:29:07;;;;;;;3.55;1.20;;;;;;;24.07;29.19;98100.88;5032237;28;20041;-78
2022/05/22 20:31:33;;;;;;;4.47;1.30;;;;;;;24.05;29.27;98096.78;5016636;28;20045;-81
2022/05/22 20:33:58;;;;;;;3.20;1.00;;;;;;;24.00;29.22;98098.28;5032145;28;20184;-78
2022/05/22 20:36:24;;;;;;;7.68;1.23;;;;;;;24.01;29.28;98096.41;5016407;28;20044;-79
2022/05/22 20:38:49;;;;;;;4.38;1.30;;;;;;;23.97;29.14;98101.38;5033973;28;20084;-79
2022/05/22 20:41:15;;;;;;;5.68;0.95;;;;;;;23.94;29.42;98087.66;5032687;28;20480;-79
2022/05/22 20:43:45;;;;;;;4.00;1.10;;;;;;;23.95;29.15;98097.28;5032627;28;20022;-79
2022/05/22 20:46:10;;;;;;;2.83;1.00;;;;;;;23.91;29.17;98093.41;5016312;28;20029;-77
2022/05/22 20:48:36;;;;;;;5.13;1.10;;;;;;;23.90;29.38;98089.94;5044637;28;20199;-79
2022/05/22 20:51:02;;;;;;;3.55;1.02;;;;;;;23.89;29.18;98092.84;5052716;28;20025;-79
2022/05/22 20:53:28;;;;;;;2.10;1.00;;;;;;;23.83;29.48;98086.47;5053250;28;20063;-79
2022/05/22 20:58:39;;;;;;;9.00;1.10;;;;;;;23.77;29.33;98074.88;5039714;28;20043;-79
2022/05/22 21:01:06;;;;;;;3.17;1.20;;;;;;;23.75;29.35;98076.09;5053046;28;20037;-79
2022/05/22 21:03:31;;;;;;;5.07;0.98;;;;;;;23.75;29.16;98078.78;5052788;28;20488;-79
2022/05/22 21:05:57;;;;;;;2.92;1.00;;;;;;;23.71;29.04;98081.06;5036115;28;20036;-79
2022/05/22 21:08:27;;;;;;;2.08;0.95;;;;;;;23.71;29.24;98080.25;5036300;28;20090;-77
2022/05/22 21:10:53;;;;;;;4.20;1.20;;;;;;;23.67;28.88;98086.03;5054652;28;20029;-76
2022/05/22 21:13:18;;;;;;;4.60;1.23;;;;;;;23.66;29.01;98079.06;5053001;28;20369;-77
2022/05/22 21:15:44;;;;;;;5.53;0.90;;;;;;;23.62;28.70;98071.72;5052686;28;20106;-77
2022/05/22 21:18:10;;;;;;;4.65;1.13;;;;;;;23.61;28.62;98076.22;5052644;28;20035;-77
2022/05/22 21:20:35;;;;;;;6.32;1.15;;;;;;;23.61;28.62;98073.56;5035659;28;20507;-77
2022/05/22 21:23:01;;;;;;;6.93;1.05;;;;;;;23.59;28.11;98070.28;5053627;28;20025;-76
2022/05/22 21:28:34;;;;;;;1.95;1.00;;;;;;;23.56;28.24;98076.06;5039202;28;20458;-77
2022/05/22 21:31:01;;;;;;;3.95;0.90;;;;;;;23.53;27.88;98083.66;5038365;28;20064;-77
2022/05/22 21:33:26;;;;;;;5.95;0.80;;;;;;;23.51;27.91;98077.75;5052537;28;20550;-77
2022/05/22 21:35:52;;;;;;;2.92;0.90;;;;;;;23.48;27.97;98068.34;5052266;28;20033;-77
2022/05/22 21:38:18;;;;;;;4.05;0.77;;;;;;;23.51;27.71;98077.75;5053635;28;20118;-77
2022/05/22 21:40:44;;;;;;;4.10;0.75;;;;;;;23.45;28.07;98074.09;5035967;28;20043;-77
2022/05/22 21:43:11;;;;;;;3.55;0.82;;;;;;;23.42;27.71;98074.53;5051799;28;20484;-76
2022/05/22 21:45:36;;;;;;;1.50;0.80;;;;;;;23.39;27.90;98075.78;5018675;28;20076;-77
2022/05/22 21:48:02;;;;;;;3.83;0.80;;;;;;;23.42;27.53;98072.69;5018397;28;20511;-77
2022/05/22 21:50:27;;;;;;;3.35;0.80;;;;;;;23.39;27.50;98081.13;5051893;28;20025;-77
2022/05/22 21:52:53;;;;;;;3.30;0.80;;;;;;;23.38;27.47;98078.66;5053301;28;20036;-77
2022/05/22 21:55:18;;;;;;;1.65;0.70;;;;;;;23.35;27.57;98071.09;5053410;28;20025;-77
2022/05/22 21:57:46;;;;;;;2.50;0.70;;;;;;;23.33;27.53;98079.31;5052203;28;20032;-76
2022/05/22 22:00:27;;;;;;;4.30;0.68;;;;;;;23.32;27.76;98071.53;5019133;28;20032;-76
2022/05/22 22:02:53;;;;;;;2.67;0.70;;;;;;;23.29;27.40;98080.75;5051538;28;20055;-77
2022/05/22 22:05:19;;;;;;;0.75;0.50;;;;;;;23.25;27.88;98067.06;5053210;28;20033;-77
2022/05/22 22:07:44;;;;;;;1.38;0.70;;;;;;;23.25;27.72;98075.06;5053320;28;20037;-77
2022/05/22 22:10:10;;;;;;;2.75;0.90;;;;;;;23.25;27.61;98074.25;5053261;28;20029;-77
2022/05/22 22:12:36;;;;;;;1.65;0.77;;;;;;;23.23;27.56;98077.13;5052385;28;20028;-77
2022/05/22 22:15:03;;;;;;;3.15;0.80;;;;;;;23.21;27.84;98075.69;5034798;28;20029;-77
2022/05/22 22:17:29;;;;;;;1.92;0.70;;;;;;;23.14;27.90;98059.78;5035078;28;20087;-77
2022/05/22 22:19:54;;;;;;;2.53;0.70;;;;;;;23.16;28.08;98068.34;5052983;28;20032;-77
2022/05/22 22:22:20;;;;;;;1.73;0.57;;;;;;;23.14;28.02;98070.41;5052609;28;20136;-77
2022/05/22 22:24:45;;;;;;;3.25;0.63;;;;;;;23.09;27.79;98056.94;5053342;28;20032;-77
2022/05/22 22:27:11;;;;;;;4.65;0.77;;;;;;;23.10;28.21;98061.22;5051389;28;20033;-77
2022/05/22 22:29:37;;;;;;;3.15;0.70;;;;;;;23.07;27.92;98065.13;5052471;28;20037;-76
2022/05/22 22:32:07;;;;;;;2.22;0.70;;;;;;;23.07;28.10;98074.94;5051013;28;20043;-76
2022/05/22 22:34:32;;;;;;;3.05;0.75;;;;;;;23.04;28.13;98070.03;5035674;28;20546;-77
2022/05/22 22:36:58;;;;;;;2.63;0.73;;;;;;;23.04;27.94;98064.72;5034646;28;20071;-77
2022/05/22 22:39:23;;;;;;;4.70;0.80;;;;;;;23.01;28.00;98065.13;5051091;28;20041;-76
2022/05/22 22:41:49;;;;;;;4.95;0.77;;;;;;;23.01;28.14;98054.47;5052484;28;20507;-77
2022/05/22 22:44:15;;;;;;;0.77;0.60;;;;;;;22.97;27.97;98047.97;5034514;28;20029;-76
2022/05/22 22:46:40;;;;;;;4.05;0.73;;;;;;;22.97;28.13;98042.66;5034421;28;20126;-76
2022/05/22 22:49:06;;;;;;;2.20;0.70;;;;;;;22.95;28.40;98051.66;5034626;28;20036;-76
2022/05/22 22:51:31;;;;;;;2.72;0.75;;;;;;;22.90;28.42;98056.00;5052353;28;20055;-76
2022/05/22 22:59:33;;;;;;;1.85;1.17;;;;;;;22.82;28.23;98051.75;5051453;28;20036;-77
2022/05/22 23:01:58;;;;;;;3.95;0.80;;;;;;;22.84;28.54;98055.00;5034998;28;20531;-76
2022/05/22 23:04:24;;;;;;;1.88;0.60;;;;;;;22.82;28.55;98061.56;5051224;28;20028;-76
2022/05/22 23:06:50;;;;;;;1.77;0.77;;;;;;;22.78;28.18;98050.53;5052142;28;20476;-76
2022/05/22 23:09:16;;;;;;;3.55;0.77;;;;;;;22.80;28.51;98056.44;5050882;28;20025;-76
2022/05/22 23:11:41;;;;;;;1.00;0.60;;;;;;;22.78;28.49;98061.16;5052055;28;20040;-77
2022/05/22 23:14:07;;;;;;;2.08;0.70;;;;;;;22.75;28.59;98062.41;5050902;28;20029;-76
2022/05/22 23:16:32;;;;;;;3.15;0.70;;;;;;;22.75;28.70;98061.59;5034703;28;20064;-77
2022/05/22 23:18:59;;;;;;;3.10;0.80;;;;;;;22.69;28.47;98057.09;5052226;28;20029;-77
2022/05/22 23:21:25;;;;;;;3.65;0.80;;;;;;;22.70;28.77;98062.22;5052003;28;20024;-76
2022/05/22 23:23:50;;;;;;;1.88;0.70;;;;;;;22.67;28.84;98059.19;5051404;28;20051;-76
2022/05/22 23:26:17;;;;;;;2.25;0.80;;;;;;;22.64;28.72;98060.41;5055676;28;20243;-76
2022/05/22 23:28:43;;;;;;;3.63;0.98;;;;;;;22.64;28.65;98051.63;5020919;28;20029;-78
2022/05/22 23:31:09;;;;;;;6.22;0.80;;;;;;;22.62;28.62;98043.84;5036414;28;20112;-76
2022/05/22 23:33:34;;;;;;;2.85;0.75;;;;;;;22.60;28.45;98043.25;5053513;28;20030;-76
2022/05/22 23:36:00;;;;;;;2.35;0.70;;;;;;;22.56;28.69;98034.84;5055986;28;20104;-76
2022/05/22 23:38:27;;;;;;;1.33;0.60;;;;;;;22.58;28.57;98046.13;5021458;28;20067;-76
2022/05/22 23:40:53;;;;;;;2.37;0.70;;;;;;;22.56;28.73;98042.84;5038368;28;20044;-76
2022/05/22 23:43:18;;;;;;;1.60;0.80;;;;;;;22.53;28.48;98043.28;5053879;28;20288;-76
2022/05/22 23:45:44;;;;;;;3.08;0.70;;;;;;;22.48;28.77;98043.09;5055936;28;20040;-76
2022/05/22 23:48:09;;;;;;;3.75;0.65;;;;;;;22.45;28.65;98038.19;5055642;28;20025;-76
2022/05/22 23:50:35;;;;;;;1.73;0.70;;;;;;;22.43;28.11;98042.09;5055600;28;20032;-76
2022/05/22 23:53:01;;;;;;;1.90;0.80;;;;;;;22.15;28.61;98040.50;5055589;28;20104;-76
2022/05/22 23:55:29;;;;;;;1.20;0.75;;;;;;;22.04;28.38;98040.13;5054262;28;20405;-76
2022/05/22 23:57:55;;;;;;;7.40;0.70;;;;;;;22.08;28.37;98053.00;5053728;28;20091;-76
